Time;durP1;ratioP1;P1;durP2;ratioP2;P2;SDS_P1;SDS_P2;PMS_P1;PMS_P2;Temp;Humidity;BMP_temperature;BMP_pressure;BME280_temperature;BME280_humidity;BME280_pressure;Samples;Min_cycle;Max_cycle;Signal;HPM_P1;HPM_P2
2022/01/31 00:02:13;;;;;;;5.18;1.83;;;7.80;94.10;;;;;;5061991;28;20017;-48
2022/01/31 00:04:39;;;;;;;5.38;2.30;;;7.80;94.10;;;;;;5056203;28;20036;-48
2022/01/31 00:07:05;;;;;;;7.57;2.45;;;7.80;94.10;;;;;;5058891;28;20059;-48
2022/01/31 00:09:31;;;;;;;9.55;2.10;;;7.80;94.10;;;;;;5061914;28;20029;-48
2022/01/31 00:12:18;;;;;;;5.80;2.78;;;7.80;94.10;;;;;;5059623;28;20456;-48
2022/01/31 00:14:48;;;;;;;4.38;2.55;;;7.80;94.10;;;;;;5061294;28;20025;-48
2022/01/31 00:17:14;;;;;;;9.35;2.83;;;7.80;94.10;;;;;;5062161;28;20055;-48
2022/01/31 00:19:41;;;;;;;3.47;1.70;;;7.80;94.10;;;;;;5060133;28;20144;-48
2022/01/31 00:22:09;;;;;;;8.25;2.38;;;7.80;94.10;;;;;;5057538;28;20029;-49
2022/01/31 00:24:35;;;;;;;9.65;2.03;;;7.80;94.20;;;;;;5061004;28;20356;-48
2022/01/31 00:27:02;;;;;;;10.40;1.90;;;7.80;94.10;;;;;;5059538;28;20081;-48
2022/01/31 00:29:28;;;;;;;10.65;2.05;;;7.80;94.20;;;;;;5061543;28;20450;-48
2022/01/31 00:31:53;;;;;;;7.28;2.50;;;7.80;94.20;;;;;;5059543;28;20053;-49
2022/01/31 00:34:20;;;;;;;7.47;2.20;;;7.80;94.20;;;;;;5062361;28;20031;-48
2022/01/31 00:36:45;;;;;;;9.15;2.70;;;7.80;94.20;;;;;;5056679;28;20060;-48
2022/01/31 00:39:11;;;;;;;3.67;2.05;;;7.80;94.20;;;;;;5058158;28;20114;-49
2022/01/31 00:41:37;;;;;;;2.17;1.45;;;7.80;94.20;;;;;;5060215;28;20302;-48
2022/01/31 00:44:16;;;;;;;6.13;2.38;;;7.80;94.20;;;;;;5060507;28;20108;-49
2022/01/31 00:46:48;;;;;;;3.13;1.70;;;7.80;94.30;;;;;;5056935;28;20033;-48
2022/01/31 00:50:06;;;;;;;5.88;2.13;;;7.80;94.30;;;;;;5060477;28;20029;-48
2022/01/31 00:52:04;;;;;;;10.93;2.78;;;7.80;94.30;;;;;;5062200;28;20045;-48
2022/01/31 00:54:31;;;;;;;6.68;2.08;;;7.80;94.30;;;;;;5058815;28;20100;-48
2022/01/31 00:56:57;;;;;;;4.22;1.65;;;7.80;94.30;;;;;;5060372;28;20038;-49
2022/01/31 00:59:22;;;;;;;11.15;2.75;;;7.80;94.30;;;;;;5058436;28;20036;-48
2022/01/31 01:01:48;;;;;;;6.70;1.55;;;7.80;94.30;;;;;;5061467;28;20377;-48
2022/01/31 01:04:14;;;;;;;5.70;2.10;;;7.80;94.30;;;;;;5054805;28;20037;-48
2022/01/31 01:06:41;;;;;;;5.55;1.58;;;7.80;94.30;;;;;;5058025;28;20021;-49
2022/01/31 01:09:07;;;;;;;6.40;1.65;;;7.80;94.40;;;;;;5056485;28;20036;-48
2022/01/31 01:11:34;;;;;;;11.10;1.83;;;7.80;94.40;;;;;;5060341;28;20052;-48
2022/01/31 01:14:00;;;;;;;4.15;2.10;;;7.80;94.40;;;;;;5061917;28;20029;-48
2022/01/31 01:16:25;;;;;;;2.85;1.55;;;7.80;94.40;;;;;;5059711;28;20090;-48
2022/01/31 01:18:51;;;;;;;8.82;1.90;;;7.80;94.40;;;;;;5056456;28;20033;-48
2022/01/31 01:21:17;;;;;;;7.78;1.55;;;7.80;94.40;;;;;;5061317;28;20111;-48
2022/01/31 01:23:42;;;;;;;9.18;2.08;;;7.80;94.40;;;;;;5054701;28;20032;-48
2022/01/31 01:26:08;;;;;;;14.45;2.55;;;7.80;94.40;;;;;;5061228;28;20024;-48
2022/01/31 01:28:34;;;;;;;6.55;1.50;;;7.80;94.40;;;;;;5060197;28;20039;-48
2022/01/31 01:31:00;;;;;;;5.53;1.33;;;7.80;94.40;;;;;;5057827;28;20407;-48
2022/01/31 01:33:26;;;;;;;7.35;1.52;;;7.80;94.50;;;;;;5060292;28;20366;-48
2022/01/31 01:35:54;;;;;;;7.45;2.00;;;7.80;94.40;;;;;;5056159;28;20024;-48
2022/01/31 01:38:23;;;;;;;11.18;2.35;;;7.80;94.50;;;;;;5056055;28;20036;-49
2022/01/31 01:40:49;;;;;;;5.47;1.83;;;7.80;94.50;;;;;;5059454;28;20068;-48
2022/01/31 01:43:15;;;;;;;9.98;2.38;;;7.80;94.40;;;;;;5060427;28;20086;-48
2022/01/31 01:45:42;;;;;;;5.85;2.17;;;7.80;94.50;;;;;;5059695;28;20029;-48
2022/01/31 01:48:10;;;;;;;12.20;2.55;;;7.80;94.50;;;;;;5057578;28;20024;-49
2022/01/31 01:50:38;;;;;;;9.23;2.20;;;7.80;94.50;;;;;;5062297;28;20332;-48
2022/01/31 01:53:04;;;;;;;8.38;1.88;;;7.80;94.50;;;;;;5057807;28;20462;-49
2022/01/31 01:55:31;;;;;;;11.75;2.20;;;7.80;94.50;;;;;;5063732;28;20335;-48
2022/01/31 01:57:57;;;;;;;4.47;1.45;;;7.80;94.50;;;;;;5062582;28;20370;-49
2022/01/31 02:00:27;;;;;;;9.20;2.40;;;7.80;94.50;;;;;;5062930;28;20163;-49
2022/01/31 02:02:54;;;;;;;;;;;7.80;94.50;;;;;;5063766;28;20082;-48
2022/01/31 02:05:21;;;;;;;8.98;2.88;;;7.90;94.50;;;;;;5059248;28;19919;-48
2022/01/31 02:07:47;;;;;;;6.50;2.80;;;7.80;94.50;;;;;;5059357;28;20063;-48
2022/01/31 02:10:14;;;;;;;14.02;2.95;;;7.80;94.50;;;;;;5062173;28;20343;-48
2022/01/31 02:12:47;;;;;;;5.20;2.08;;;7.90;94.50;;;;;;5060691;28;20029;-49
2022/01/31 02:15:14;;;;;;;4.10;2.33;;;7.80;94.50;;;;;;5062913;28;20029;-48
2022/01/31 02:17:40;;;;;;;8.88;3.05;;;7.80;94.50;;;;;;5065070;28;20357;-48
2022/01/31 02:20:09;;;;;;;9.65;3.13;;;7.90;94.50;;;;;;5062970;28;20058;-48
2022/01/31 02:22:38;;;;;;;5.80;1.73;;;7.90;94.50;;;;;;5060294;28;20115;-48
2022/01/31 02:25:05;;;;;;;8.05;2.03;;;7.80;94.50;;;;;;5061482;28;20374;-48
2022/01/31 02:27:33;;;;;;;8.52;2.47;;;7.90;94.50;;;;;;5064711;28;20036;-49
2022/01/31 02:30:00;;;;;;;6.80;2.38;;;7.90;94.50;;;;;;5059848;28;20319;-48
2022/01/31 02:32:26;;;;;;;11.63;2.30;;;7.90;94.50;;;;;;5058561;28;20178;-48
2022/01/31 02:34:52;;;;;;;9.60;2.55;;;7.90;94.50;;;;;;5064935;28;20051;-48
2022/01/31 02:37:18;;;;;;;6.93;2.33;;;7.90;94.50;;;;;;5063779;28;20036;-48
2022/01/31 02:39:45;;;;;;;10.07;2.20;;;7.90;94.50;;;;;;5057311;28;20067;-49
2022/01/31 02:42:11;;;;;;;5.57;2.05;;;7.90;94.50;;;;;;5060615;28;20099;-48
2022/01/31 02:44:42;;;;;;;5.63;1.75;;;7.90;94.50;;;;;;5064068;28;20358;-48
2022/01/31 02:47:15;;;;;;;10.95;2.75;;;7.90;94.50;;;;;;5062477;28;20056;-48
2022/01/31 02:50:05;;;;;;;12.75;2.40;;;7.90;94.50;;;;;;5063118;28;20111;-49
2022/01/31 02:52:33;;;;;;;8.90;2.17;;;7.90;94.50;;;;;;5060870;28;20404;-48
2022/01/31 02:54:59;;;;;;;5.45;1.95;;;7.90;94.50;;;;;;5059829;28;20043;-48
2022/01/31 02:57:25;;;;;;;4.28;1.42;;;7.90;94.50;;;;;;5060992;28;20040;-48
2022/01/31 02:59:50;;;;;;;4.57;1.98;;;7.90;94.50;;;;;;5061816;28;20060;-49
2022/01/31 03:02:16;;;;;;;4.30;2.45;;;7.90;94.50;;;;;;5063103;28;20028;-48
2022/01/31 03:04:42;;;;;;;10.90;2.50;;;7.90;94.50;;;;;;5056952;28;20032;-49
2022/01/31 03:07:08;;;;;;;7.85;2.50;;;7.90;94.60;;;;;;5065426;28;20070;-48
2022/01/31 03:09:34;;;;;;;2.45;1.90;;;7.90;94.50;;;;;;5055002;28;20029;-49
2022/01/31 03:12:00;;;;;;;5.38;1.45;;;7.90;94.50;;;;;;5058430;28;20075;-49
2022/01/31 03:14:26;;;;;;;6.15;2.25;;;7.90;94.50;;;;;;5062692;28;20060;-48
2022/01/31 03:16:52;;;;;;;3.67;1.63;;;7.90;94.60;;;;;;5061757;28;20458;-48
2022/01/31 03:19:19;;;;;;;6.13;2.42;;;7.90;94.50;;;;;;5063883;28;20036;-48
2022/01/31 03:21:45;;;;;;;2.15;1.33;;;7.90;94.50;;;;;;5061073;28;20027;-48
2022/01/31 03:24:12;;;;;;;5.13;2.28;;;7.90;94.50;;;;;;5057069;28;20033;-48
2022/01/31 03:26:39;;;;;;;7.03;1.92;;;7.90;94.50;;;;;;5062824;28;20020;-48
2022/01/31 03:29:05;;;;;;;3.42;2.03;;;7.90;94.50;;;;;;5063923;28;20035;-48
2022/01/31 03:31:31;;;;;;;11.85;3.33;;;7.90;94.60;;;;;;5057886;28;20028;-48
2022/01/31 03:33:57;;;;;;;10.75;2.85;;;7.90;94.50;;;;;;5062472;28;20935;-48
2022/01/31 03:36:23;;;;;;;8.00;1.85;;;7.90;94.70;;;;;;5063136;28;20013;-48
2022/01/31 03:38:50;;;;;;;1.75;1.52;;;7.90;94.50;;;;;;5058250;28;20048;-49
2022/01/31 03:41:18;;;;;;;1.48;1.08;;;7.90;94.50;;;;;;5062334;28;20021;-48
2022/01/31 03:43:44;;;;;;;5.88;1.88;;;7.90;94.50;;;;;;5056924;28;20037;-48
2022/01/31 03:46:10;;;;;;;7.45;2.53;;;7.90;94.50;;;;;;5062454;28;20032;-49
2022/01/31 03:48:36;;;;;;;5.63;1.27;;;7.90;94.50;;;;;;5059034;28;20421;-49
2022/01/31 03:51:04;;;;;;;4.65;1.65;;;7.90;94.50;;;;;;5063478;28;20045;-49
2022/01/31 03:53:30;;;;;;;5.65;1.35;;;7.90;94.50;;;;;;5054436;28;20503;-49
2022/01/31 03:55:57;;;;;;;3.70;1.42;;;7.90;94.60;;;;;;5059515;28;20529;-48
2022/01/31 03:58:23;;;;;;;2.38;1.92;;;7.90;94.60;;;;;;5061803;28;20032;-48
2022/01/31 04:00:49;;;;;;;7.63;1.33;;;7.90;94.50;;;;;;5060944;28;20029;-48
2022/01/31 04:03:15;;;;;;;1.98;1.27;;;7.80;94.50;;;;;;5056928;28;20075;-48
2022/01/31 04:05:42;;;;;;;4.88;1.27;;;7.80;94.50;;;;;;5055068;28;20040;-48
2022/01/31 04:08:08;;;;;;;3.00;1.15;;;7.80;94.50;;;;;;5063906;28;20032;-49
2022/01/31 04:10:35;;;;;;;6.97;1.48;;;7.90;94.50;;;;;;5056300;28;20032;-48
2022/01/31 04:13:02;;;;;;;1.92;1.40;;;7.90;94.50;;;;;;5059492;28;20017;-48
2022/01/31 04:15:27;;;;;;;0.60;0.60;;;7.90;94.50;;;;;;5060699;28;20422;-49
2022/01/31 04:17:53;;;;;;;2.08;1.60;;;7.90;94.60;;;;;;5061625;28;20107;-48
2022/01/31 04:20:20;;;;;;;8.07;2.25;;;7.90;94.50;;;;;;5062991;28;20024;-49
2022/01/31 04:25:28;;;;;;;4.15;1.95;;;7.80;94.50;;;;;;5057068;28;20522;-48
2022/01/31 04:28:02;;;;;;;7.88;1.65;;;7.90;94.60;;;;;;5062025;28;20040;-48
2022/01/31 04:30:35;;;;;;;4.47;1.85;;;7.80;94.50;;;;;;5060486;28;20086;-48
2022/01/31 04:33:01;;;;;;;3.25;1.35;;;7.90;94.60;;;;;;5062223;28;20500;-48
2022/01/31 04:35:26;;;;;;;2.85;1.77;;;7.90;94.50;;;;;;5056767;28;20028;-48
2022/01/31 04:37:52;;;;;;;5.53;1.70;;;7.90;94.60;;;;;;5062335;28;20441;-48
2022/01/31 04:40:18;;;;;;;5.85;2.08;;;7.90;94.60;;;;;;5055584;28;20028;-49
2022/01/31 04:42:45;;;;;;;2.05;1.52;;;7.90;94.60;;;;;;5060192;28;20044;-49
2022/01/31 04:45:11;;;;;;;1.25;1.13;;;7.90;94.60;;;;;;5059018;28;20052;-49
2022/01/31 04:47:37;;;;;;;5.13;1.83;;;7.90;94.60;;;;;;5059260;28;20029;-48
2022/01/31 04:50:05;;;;;;;2.25;0.80;;;7.90;94.60;;;;;;5060582;28;20086;-49
2022/01/31 04:52:30;;;;;;;1.80;1.00;;;7.80;94.60;;;;;;5058193;28;20040;-48
2022/01/31 04:54:56;;;;;;;1.08;0.90;;;7.90;94.60;;;;;;5057657;28;20032;-49
2022/01/31 04:57:22;;;;;;;1.30;0.75;;;7.90;94.60;;;;;;5060808;28;20068;-48
2022/01/31 04:59:49;;;;;;;3.40;1.70;;;7.90;94.50;;;;;;5062185;28;20040;-49
2022/01/31 05:02:14;;;;;;;6.53;2.10;;;7.90;94.60;;;;;;5058802;28;20024;-48
2022/01/31 05:04:40;;;;;;;0.40;0.40;;;7.80;94.60;;;;;;5052218;28;20033;-48
2022/01/31 05:07:05;;;;;;;6.00;1.63;;;7.90;94.50;;;;;;5062810;28;20497;-48
2022/01/31 05:09:31;;;;;;;2.38;1.77;;;7.90;94.60;;;;;;5057006;28;20029;-49
2022/01/31 05:11:57;;;;;;;3.47;2.10;;;7.90;94.60;;;;;;5059197;28;20093;-48
2022/01/31 05:14:22;;;;;;;4.70;1.70;;;7.90;94.60;;;;;;5058693;28;20025;-48
2022/01/31 05:16:48;;;;;;;0.73;0.73;;;7.80;94.50;;;;;;5058972;28;20028;-48
2022/01/31 05:19:14;;;;;;;1.08;0.70;;;7.90;94.60;;;;;;5061075;28;20093;-49
2022/01/31 05:21:39;;;;;;;4.97;1.58;;;7.90;94.50;;;;;;5060962;28;20036;-49
2022/01/31 05:24:06;;;;;;;4.57;1.65;;;7.90;94.50;;;;;;5066878;28;20134;-49
2022/01/31 05:26:32;;;;;;;1.67;1.10;;;7.90;94.50;;;;;;5058103;28;20017;-48
2022/01/31 05:28:58;;;;;;;5.32;1.70;;;7.90;94.50;;;;;;5065907;28;20026;-49
2022/01/31 05:31:24;;;;;;;1.65;1.23;;;7.90;94.50;;;;;;5061577;28;20351;-48
2022/01/31 05:33:49;;;;;;;0.57;0.50;;;7.90;94.60;;;;;;5058343;28;20033;-48
2022/01/31 05:36:15;;;;;;;1.13;0.77;;;7.80;94.40;;;;;;5057987;28;20116;-48
2022/01/31 05:38:41;;;;;;;2.35;1.15;;;7.90;94.50;;;;;;5061125;28;20028;-49
2022/01/31 05:41:10;;;;;;;4.45;2.05;;;7.90;94.60;;;;;;5055242;28;20032;-49
2022/01/31 05:43:36;;;;;;;3.50;0.85;;;7.90;94.60;;;;;;5057933;28;20039;-48
2022/01/31 05:46:03;;;;;;;4.13;1.77;;;7.90;94.50;;;;;;5058049;28;20021;-49
2022/01/31 05:48:28;;;;;;;2.15;1.17;;;7.90;94.50;;;;;;5056694;28;20210;-48
2022/01/31 05:50:54;;;;;;;2.05;1.13;;;7.90;94.50;;;;;;5061347;28;20035;-49
2022/01/31 05:53:22;;;;;;;4.63;1.83;;;7.90;94.60;;;;;;5058717;28;20108;-48
2022/01/31 05:55:47;;;;;;;5.00;2.00;;;7.90;94.50;;;;;;5055620;28;20116;-48
2022/01/31 05:58:14;;;;;;;6.10;2.20;;;7.90;94.60;;;;;;5060596;28;20120;-48
2022/01/31 06:00:39;;;;;;;3.53;1.33;;;7.90;94.50;;;;;;5056073;28;20025;-48
2022/01/31 06:03:05;;;;;;;11.25;2.33;;;7.90;94.60;;;;;;5059529;28;20396;-49
2022/01/31 06:05:31;;;;;;;5.95;2.65;;;7.90;94.50;;;;;;5054450;28;20032;-48
2022/01/31 06:07:56;;;;;;;2.03;1.42;;;7.80;94.60;;;;;;5057357;28;20130;-49
2022/01/31 06:10:23;;;;;;;2.33;1.33;;;7.90;94.60;;;;;;5049935;28;20069;-49
2022/01/31 06:12:51;;;;;;;1.17;0.98;;;7.90;94.60;;;;;;5056527;28;20032;-48
2022/01/31 06:15:17;;;;;;;2.47;1.05;;;7.90;94.50;;;;;;5062248;28;20029;-48
2022/01/31 06:17:42;;;;;;;3.22;1.58;;;7.90;94.60;;;;;;5059560;28;20021;-48
2022/01/31 06:20:08;;;;;;;1.65;1.02;;;7.90;94.60;;;;;;5055848;28;20043;-48
2022/01/31 06:22:34;;;;;;;0.45;0.45;;;7.90;94.50;;;;;;5054490;28;20040;-49
2022/01/31 06:24:59;;;;;;;1.42;0.82;;;7.90;94.50;;;;;;5057481;28;20033;-48
2022/01/31 06:27:25;;;;;;;1.35;1.15;;;7.90;94.50;;;;;;5057506;28;20025;-48
2022/01/31 06:29:50;;;;;;;3.92;2.05;;;7.80;94.50;;;;;;5060603;28;20358;-48
2022/01/31 06:32:18;;;;;;;4.57;1.45;;;7.90;94.60;;;;;;5057884;28;20029;-48
2022/01/31 06:34:44;;;;;;;2.17;1.00;;;7.90;94.50;;;;;;5060260;28;20052;-49
2022/01/31 06:37:09;;;;;;;3.17;1.50;;;7.90;94.50;;;;;;5063427;28;20508;-48
2022/01/31 06:39:35;;;;;;;3.10;0.65;;;7.90;94.40;;;;;;5061303;28;20025;-48
2022/01/31 06:42:01;;;;;;;1.35;1.27;;;7.90;94.50;;;;;;5065767;28;20077;-48
2022/01/31 06:44:26;;;;;;;1.45;0.98;;;7.90;94.40;;;;;;5065683;28;20075;-48
2022/01/31 06:46:52;;;;;;;4.75;2.05;;;7.90;94.50;;;;;;5062818;28;20032;-49
2022/01/31 06:49:17;;;;;;;0.38;0.38;;;7.90;94.50;;;;;;5062977;28;20032;-48
2022/01/31 06:51:43;;;;;;;1.95;1.17;;;7.90;94.40;;;;;;5061327;28;20743;-49
2022/01/31 06:54:09;;;;;;;1.00;0.73;;;7.90;94.40;;;;;;5070063;28;20032;-48
2022/01/31 06:56:38;;;;;;;1.50;1.10;;;7.90;94.40;;;;;;5059132;28;20023;-49
2022/01/31 06:59:04;;;;;;;1.70;0.88;;;7.80;94.40;;;;;;5058953;28;20036;-48
2022/01/31 07:01:30;;;;;;;6.75;1.55;;;7.90;94.40;;;;;;5052677;28;20108;-49
2022/01/31 07:03:57;;;;;;;0.68;0.68;;;7.90;94.40;;;;;;5057539;28;20044;-49
2022/01/31 07:06:24;;;;;;;0.60;0.60;;;7.80;94.30;;;;;;5058619;28;20051;-48
2022/01/31 07:08:51;;;;;;;0.57;0.57;;;7.80;94.30;;;;;;5064829;28;20075;-48
2022/01/31 07:11:22;;;;;;;2.20;1.48;;;7.90;94.30;;;;;;5058933;28;20028;-49
2022/01/31 07:13:49;;;;;;;1.75;1.15;;;7.80;94.30;;;;;;5066122;28;20032;-48
2022/01/31 07:16:15;;;;;;;2.42;0.98;;;7.80;94.40;;;;;;5064852;28;20033;-48
2022/01/31 07:18:42;;;;;;;3.20;1.05;;;7.90;94.40;;;;;;5070066;28;20036;-49
2022/01/31 07:21:13;;;;;;;2.03;1.63;;;7.90;94.40;;;;;;5060614;28;20025;-48
2022/01/31 07:23:52;;;;;;;2.53;1.08;;;7.90;94.40;;;;;;5070607;28;20059;-48
2022/01/31 07:26:18;;;;;;;2.30;1.10;;;7.90;94.50;;;;;;5069584;28;20029;-48
2022/01/31 07:28:44;;;;;;;6.38;2.28;;;7.80;94.40;;;;;;5069117;28;20040;-48
2022/01/31 07:31:12;;;;;;;4.85;1.90;;;7.80;94.40;;;;;;5058941;28;20040;-48
2022/01/31 07:33:41;;;;;;;3.47;1.15;;;7.80;94.50;;;;;;5061268;28;20039;-48
2022/01/31 07:36:06;;;;;;;1.58;0.95;;;7.80;94.50;;;;;;5061553;28;20024;-49
2022/01/31 07:38:32;;;;;;;3.50;2.17;;;7.80;94.50;;;;;;5065941;28;20535;-48
2022/01/31 07:40:59;;;;;;;1.92;1.45;;;7.80;94.50;;;;;;5062458;28;20025;-48
2022/01/31 07:43:25;;;;;;;3.88;1.50;;;7.90;94.50;;;;;;5058141;28;20024;-49
2022/01/31 07:45:50;;;;;;;2.67;1.48;;;7.80;94.50;;;;;;5062801;28;20024;-48
2022/01/31 07:48:16;;;;;;;4.10;1.60;;;7.80;94.50;;;;;;5061526;28;20430;-48
2022/01/31 07:50:42;;;;;;;1.88;1.58;;;7.80;94.60;;;;;;5061897;28;20368;-48
2022/01/31 07:53:09;;;;;;;1.45;0.93;;;7.90;94.60;;;;;;5060727;28;20027;-48
2022/01/31 07:55:34;;;;;;;3.00;2.15;;;7.90;94.60;;;;;;5061329;28;20029;-48
2022/01/31 07:58:00;;;;;;;8.60;2.63;;;7.90;94.60;;;;;;5064752;28;20029;-48
2022/01/31 08:00:27;;;;;;;2.53;1.30;;;7.80;94.60;;;;;;5069728;28;20120;-49
2022/01/31 08:02:53;;;;;;;11.45;2.15;;;7.80;94.70;;;;;;5069402;28;20029;-48
2022/01/31 08:05:21;;;;;;;3.42;2.00;;;7.90;94.80;;;;;;5069180;28;20094;-49
2022/01/31 08:07:48;;;;;;;4.85;1.38;;;7.90;94.70;;;;;;5076279;28;20044;-49
2022/01/31 08:10:15;;;;;;;6.47;1.67;;;7.80;95.00;;;;;;5074419;28;20059;-48
2022/01/31 08:12:42;;;;;;;5.20;1.50;;;7.90;94.80;;;;;;5068781;28;20142;-48
2022/01/31 08:15:13;;;;;;;3.05;1.67;;;7.90;94.80;;;;;;5071038;28;20020;-48
2022/01/31 08:17:39;;;;;;;4.65;1.40;;;7.80;94.70;;;;;;5075137;28;20066;-48
2022/01/31 08:20:05;;;;;;;4.53;1.83;;;7.90;94.80;;;;;;5074275;28;20064;-48
2022/01/31 08:22:31;;;;;;;5.55;1.52;;;7.90;94.90;;;;;;5067818;28;20055;-48
2022/01/31 08:24:57;;;;;;;1.23;0.93;;;7.90;94.80;;;;;;5069538;28;20068;-49
2022/01/31 08:27:22;;;;;;;1.75;1.23;;;7.90;94.90;;;;;;5068533;28;20025;-48
2022/01/31 08:29:48;;;;;;;1.00;0.60;;;7.90;94.90;;;;;;5068608;28;20050;-48
2022/01/31 08:32:18;;;;;;;3.22;1.30;;;7.90;95.00;;;;;;5065963;28;20366;-48
2022/01/31 08:37:30;;;;;;;8.52;2.10;;;7.90;94.90;;;;;;5081104;28;20044;-49
2022/01/31 08:39:57;;;;;;;4.38;1.55;;;7.90;95.00;;;;;;5073411;28;20620;-48
2022/01/31 08:42:23;;;;;;;0.95;0.88;;;7.90;95.00;;;;;;5068433;28;20402;-48
2022/01/31 08:44:49;;;;;;;2.58;1.10;;;7.90;95.10;;;;;;5075390;28;20145;-49
2022/01/31 08:47:15;;;;;;;2.03;1.25;;;7.90;95.10;;;;;;5071089;28;20024;-49
2022/01/31 08:49:42;;;;;;;2.22;1.50;;;7.90;95.10;;;;;;5068633;28;20027;-48
2022/01/31 08:52:08;;;;;;;5.00;1.48;;;7.90;95.30;;;;;;5070353;28;20074;-48
2022/01/31 08:54:34;;;;;;;7.32;1.70;;;7.90;95.20;;;;;;5074953;28;20036;-48
2022/01/31 08:56:59;;;;;;;3.08;1.42;;;7.90;95.20;;;;;;5069048;28;20020;-48
2022/01/31 08:59:26;;;;;;;0.75;0.75;;;7.90;95.10;;;;;;5060240;28;20367;-48
2022/01/31 09:02:02;;;;;;;2.40;1.35;;;7.90;95.20;;;;;;5060874;28;20401;-49
2022/01/31 09:04:41;;;;;;;1.88;1.30;;;7.90;95.20;;;;;;5061509;28;20450;-48
2022/01/31 09:07:07;;;;;;;4.55;1.27;;;7.90;95.30;;;;;;5067573;28;20036;-49
2022/01/31 09:09:33;;;;;;;4.00;1.20;;;7.90;95.30;;;;;;5065895;28;20033;-48
2022/01/31 09:11:59;;;;;;;1.30;0.95;;;7.90;95.40;;;;;;5063051;28;20030;-48
2022/01/31 09:14:25;;;;;;;3.17;1.15;;;7.90;95.40;;;;;;5067730;28;20469;-49
2022/01/31 09:16:51;;;;;;;1.75;1.23;;;7.90;95.40;;;;;;5075333;28;20382;-48
2022/01/31 09:19:17;;;;;;;3.78;1.33;;;8.00;95.50;;;;;;5073658;28;20480;-48
2022/01/31 09:21:44;;;;;;;2.85;1.58;;;7.90;95.50;;;;;;5071898;28;20025;-48
2022/01/31 09:24:09;;;;;;;2.42;1.70;;;7.90;95.50;;;;;;5076359;28;20030;-48
2022/01/31 09:26:36;;;;;;;3.15;1.50;;;7.90;95.60;;;;;;5068854;28;20111;-48
2022/01/31 09:29:02;;;;;;;3.58;1.27;;;8.00;95.60;;;;;;5070821;28;20032;-48
2022/01/31 09:31:28;;;;;;;0.63;0.63;;;8.00;95.60;;;;;;5067611;28;20036;-48
2022/01/31 09:33:54;;;;;;;1.90;0.95;;;8.00;95.60;;;;;;5069705;28;20032;-50
2022/01/31 09:36:22;;;;;;;2.67;1.42;;;7.90;95.60;;;;;;5063175;28;20021;-48
2022/01/31 09:38:48;;;;;;;1.13;1.00;;;8.00;95.70;;;;;;5071462;28;20043;-48
2022/01/31 09:41:18;;;;;;;3.95;1.60;;;7.90;95.60;;;;;;5068711;28;20054;-48
2022/01/31 09:49:06;;;;;;;3.00;1.35;;;8.00;95.80;;;;;;5060051;28;20049;-48
2022/01/31 09:51:32;;;;;;;3.13;1.25;;;8.00;95.80;;;;;;5066395;28;20481;-48
2022/01/31 09:54:00;;;;;;;0.40;0.40;;;8.00;95.80;;;;;;5067943;28;20132;-48
2022/01/31 09:56:33;;;;;;;2.83;1.67;;;8.00;95.90;;;;;;5070899;28;20370;-48
2022/01/31 09:59:00;;;;;;;1.45;1.15;;;8.00;96.00;;;;;;5073139;28;20048;-48
2022/01/31 10:01:28;;;;;;;0.60;0.60;;;8.00;96.20;;;;;;5071412;28;20028;-49
2022/01/31 10:03:55;;;;;;;0.73;0.68;;;8.00;96.10;;;;;;5062923;28;20117;-49
2022/01/31 10:06:27;;;;;;;0.77;0.77;;;8.00;96.10;;;;;;5068343;28;20099;-48
2022/01/31 10:09:19;;;;;;;5.00;1.10;;;8.10;96.20;;;;;;5066934;28;20108;-48
2022/01/31 10:11:56;;;;;;;0.75;0.70;;;8.10;96.30;;;;;;5067227;28;20042;-48
2022/01/31 10:17:35;;;;;;;0.30;0.30;;;8.10;97.20;;;;;;5094898;28;20040;-49
2022/01/31 10:20:03;;;;;;;1.20;0.40;;;8.20;97.50;;;;;;5075536;28;20048;-48
2022/01/31 10:22:31;;;;;;;2.72;0.40;;;8.20;97.50;;;;;;5073657;28;20028;-48
2022/01/31 10:25:02;;;;;;;0.95;0.55;;;8.20;97.60;;;;;;5068243;28;20058;-48
2022/01/31 10:27:31;;;;;;;1.48;0.70;;;8.20;97.70;;;;;;5064670;28;20029;-48
2022/01/31 10:30:24;;;;;;;0.52;0.52;;;8.20;97.80;;;;;;5074788;28;20048;-48
2022/01/31 10:32:51;;;;;;;1.85;0.40;;;8.30;97.70;;;;;;5075160;28;20441;-49
2022/01/31 10:35:23;;;;;;;0.30;0.30;;;8.30;98.00;;;;;;5072100;28;20327;-48
2022/01/31 10:37:54;;;;;;;0.40;0.40;;;8.30;97.90;;;;;;5074813;28;20086;-48
2022/01/31 10:56:48;;;;;;;0.95;0.80;;;8.40;98.00;;;;;;5074769;28;20031;-48
2022/01/31 10:59:20;;;;;;;1.13;0.55;;;8.40;97.90;;;;;;5069760;28;20054;-48
2022/01/31 11:01:47;;;;;;;1.25;0.40;;;8.40;97.90;;;;;;5072562;28;20031;-48
2022/01/31 11:04:15;;;;;;;1.63;0.68;;;8.40;97.70;;;;;;5071680;28;20028;-49
2022/01/31 11:06:46;;;;;;;4.68;1.17;;;8.40;97.70;;;;;;5072803;28;20039;-49
2022/01/31 11:09:17;;;;;;;1.10;0.75;;;8.40;97.60;;;;;;5074057;28;20025;-49
2022/01/31 11:11:46;;;;;;;2.88;0.77;;;8.30;97.50;;;;;;5071813;28;20384;-48
2022/01/31 11:14:13;;;;;;;2.53;1.23;;;8.40;97.50;;;;;;5069183;28;20012;-49
2022/01/31 11:16:42;;;;;;;7.22;1.05;;;8.40;97.40;;;;;;5072253;28;20377;-49
2022/01/31 11:19:10;;;;;;;3.40;0.77;;;8.40;97.40;;;;;;5075853;28;20020;-48
2022/01/31 11:21:44;;;;;;;1.85;0.60;;;8.40;97.40;;;;;;5069668;28;20032;-48
2022/01/31 11:24:21;;;;;;;2.95;0.57;;;8.40;97.30;;;;;;5066563;28;20100;-49
2022/01/31 11:26:50;;;;;;;5.68;0.70;;;8.40;97.30;;;;;;5067377;28;20025;-49
2022/01/31 11:29:17;;;;;;;0.55;0.55;;;8.40;97.30;;;;;;5064708;28;20036;-49
2022/01/31 11:31:47;;;;;;;1.02;0.57;;;8.40;97.30;;;;;;5068992;28;20024;-49
2022/01/31 11:34:13;;;;;;;0.60;0.60;;;8.40;97.10;;;;;;5069067;28;20548;-49
2022/01/31 11:36:40;;;;;;;0.98;0.70;;;8.40;97.10;;;;;;5067587;28;20346;-48
2022/01/31 11:39:10;;;;;;;2.85;1.00;;;8.40;97.10;;;;;;5068366;28;20044;-48
2022/01/31 11:41:42;;;;;;;6.10;0.80;;;8.40;97.10;;;;;;5069512;28;20710;-48
2022/01/31 11:44:22;;;;;;;0.52;0.52;;;8.40;97.10;;;;;;5072094;28;20043;-49
2022/01/31 11:46:49;;;;;;;1.40;0.77;;;8.40;97.00;;;;;;5074262;28;20032;-49
2022/01/31 11:49:15;;;;;;;5.43;0.80;;;8.40;97.00;;;;;;5072201;28;20127;-48
2022/01/31 11:52:00;;;;;;;0.82;0.80;;;8.40;97.00;;;;;;5070739;28;20028;-49
2022/01/31 11:54:26;;;;;;;3.38;0.80;;;8.50;97.10;;;;;;5074313;28;20025;-48
2022/01/31 11:56:53;;;;;;;2.03;0.82;;;8.40;97.00;;;;;;5073659;28;20031;-49
2022/01/31 11:59:21;;;;;;;2.08;0.88;;;8.50;97.00;;;;;;5070074;28;20040;-48
2022/01/31 12:01:51;;;;;;;3.85;0.57;;;8.40;97.10;;;;;;5071096;28;20032;-48
2022/01/31 12:04:22;;;;;;;0.50;0.50;;;8.50;97.10;;;;;;5064425;28;20453;-49
2022/01/31 12:06:48;;;;;;;1.27;1.02;;;8.50;97.20;;;;;;5066316;28;20459;-48
2022/01/31 12:09:17;;;;;;;1.05;0.70;;;8.50;97.40;;;;;;5065111;28;20111;-49
2022/01/31 12:12:45;;;;;;;2.33;1.02;;;8.50;97.20;;;;;;5065794;28;20502;-48
2022/01/31 12:15:49;;;;;;;4.93;1.00;;;8.50;97.50;;;;;;5061445;28;20078;-49
2022/01/31 12:18:40;;;;;;;1.10;0.73;;;8.50;97.20;;;;;;5070384;28;20036;-48
2022/01/31 12:23:55;;;;;;;0.60;0.60;;;8.50;97.20;;;;;;5070904;28;20113;-48
2022/01/31 12:26:27;;;;;;;5.28;0.70;;;8.50;97.00;;;;;;5068845;28;20056;-49
2022/01/31 12:29:08;;;;;;;3.80;0.70;;;8.50;97.10;;;;;;5070780;28;20460;-48
2022/01/31 12:31:33;;;;;;;1.95;0.85;;;8.50;97.00;;;;;;5069482;28;20050;-48
2022/01/31 12:33:59;;;;;;;0.90;0.90;;;8.50;97.10;;;;;;5068744;28;20510;-48
2022/01/31 12:36:36;;;;;;;1.88;0.60;;;8.50;97.00;;;;;;5070060;28;20038;-49
2022/01/31 12:45:08;;;;;;;2.38;1.00;;;8.50;96.90;;;;;;5067669;28;20485;-48
2022/01/31 12:47:34;;;;;;;1.65;0.80;;;8.50;97.00;;;;;;5069358;28;20384;-49
2022/01/31 12:50:23;;;;;;;1.08;0.50;;;8.50;96.90;;;;;;5066756;28;20152;-48
2022/01/31 12:52:48;;;;;;;4.32;0.80;;;8.50;96.90;;;;;;5067455;28;20017;-48
2022/01/31 12:55:14;;;;;;;4.28;0.80;;;8.50;97.00;;;;;;5073882;28;20025;-49
2022/01/31 12:57:52;;;;;;;1.50;0.80;;;8.50;96.90;;;;;;5069294;28;20027;-49
2022/01/31 13:00:40;;;;;;;0.73;0.63;;;8.50;96.80;;;;;;5065959;28;20043;-49
2022/01/31 13:03:07;;;;;;;0.68;0.50;;;8.50;96.80;;;;;;5070497;28;20062;-48
2022/01/31 13:05:34;;;;;;;1.08;0.80;;;8.60;96.80;;;;;;5072698;28;20466;-48
2022/01/31 13:08:00;;;;;;;1.10;0.65;;;8.60;96.80;;;;;;5069443;28;20029;-48
2022/01/31 13:10:37;;;;;;;0.90;0.77;;;8.50;96.80;;;;;;5070238;28;20020;-48
2022/01/31 13:13:03;;;;;;;2.40;0.75;;;8.50;96.90;;;;;;5064221;28;20037;-48
2022/01/31 13:15:29;;;;;;;2.45;0.80;;;8.50;96.90;;;;;;5073932;28;20025;-48
2022/01/31 13:18:06;;;;;;;1.52;0.82;;;8.60;96.90;;;;;;5072788;28;20047;-49
2022/01/31 13:20:32;;;;;;;1.20;0.80;;;8.50;96.90;;;;;;5069692;28;20467;-49
2022/01/31 13:22:59;;;;;;;0.63;0.63;;;8.50;97.00;;;;;;5069423;28;20023;-48
2022/01/31 13:25:25;;;;;;;0.50;0.50;;;8.50;97.00;;;;;;5076073;28;20063;-48
2022/01/31 13:27:50;;;;;;;0.80;0.80;;;8.60;97.00;;;;;;5070974;28;20914;-48
2022/01/31 13:30:25;;;;;;;0.95;0.57;;;8.50;96.90;;;;;;5067426;28;20456;-49
2022/01/31 13:32:51;;;;;;;4.55;0.65;;;8.50;96.90;;;;;;5069122;28;20123;-48
2022/01/31 13:35:20;;;;;;;1.42;0.63;;;8.50;96.90;;;;;;5071810;28;20074;-49
2022/01/31 13:37:52;;;;;;;2.65;0.77;;;8.50;96.70;;;;;;5073828;28;20129;-48
2022/01/31 13:40:24;;;;;;;1.15;1.08;;;8.50;96.90;;;;;;5073985;28;20036;-48
2022/01/31 13:43:09;;;;;;;0.90;0.80;;;8.50;96.90;;;;;;5066801;28;20024;-49